createdAt,value
2019-02-08T00:01:37.782Z,1.97
2019-02-08T00:04:07.077Z,1.60
2019-02-08T00:06:36.494Z,2.20
2019-02-08T00:09:09.346Z,2.43
2019-02-08T00:11:39.001Z,2.00
2019-02-08T00:14:08.490Z,2.12
2019-02-08T00:16:37.932Z,1.80
2019-02-08T00:19:07.012Z,2.03
2019-02-08T00:21:36.242Z,2.50
2019-02-08T00:24:05.869Z,2.20
2019-02-08T00:26:35.154Z,2.17
2019-02-08T00:29:04.524Z,2.47
2019-02-08T00:31:33.775Z,2.00
2019-02-08T00:34:02.920Z,2.37
2019-02-08T00:36:32.344Z,2.50
2019-02-08T00:39:01.444Z,2.57
2019-02-08T00:41:31.299Z,2.13
2019-02-08T00:44:00.460Z,1.90
2019-02-08T00:46:29.860Z,2.50
2019-02-08T00:49:00.929Z,2.10
2019-02-08T00:51:30.381Z,2.17
2019-02-08T00:53:59.896Z,1.90
2019-02-08T00:56:29.092Z,2.13
2019-02-08T00:58:58.808Z,1.67
2019-02-08T01:01:28.532Z,2.40
2019-02-08T01:03:58.004Z,1.70
2019-02-08T01:06:27.576Z,1.60
2019-02-08T01:08:57.213Z,1.90
2019-02-08T01:11:26.380Z,2.10
2019-02-08T01:13:55.966Z,2.13
2019-02-08T01:16:25.623Z,2.47
2019-02-08T01:18:54.780Z,2.00
2019-02-08T01:21:24.576Z,2.20
2019-02-08T01:23:54.568Z,1.90
2019-02-08T01:26:23.852Z,1.80
2019-02-08T01:28:53.593Z,1.77
2019-02-08T01:31:22.693Z,1.90
2019-02-08T01:33:52.728Z,1.70
2019-02-08T01:36:22.324Z,1.40
2019-02-08T01:38:52.013Z,1.20
2019-02-08T01:41:22.376Z,1.60
2019-02-08T01:43:52.244Z,1.60
2019-02-08T01:46:22.321Z,1.60
2019-02-08T01:48:52.448Z,1.97
2019-02-08T01:51:21.809Z,1.90
2019-02-08T01:53:50.992Z,1.50
2019-02-08T01:56:20.417Z,1.47
2019-02-08T01:58:49.825Z,1.80
2019-02-08T02:01:19.179Z,1.80
2019-02-08T02:03:48.716Z,2.00
2019-02-08T02:06:18.152Z,1.97
2019-02-08T02:08:47.386Z,1.60
2019-02-08T02:11:16.532Z,2.20
2019-02-08T02:13:45.624Z,1.77
2019-02-08T02:16:14.839Z,1.60
2019-02-08T02:18:44.360Z,2.23
2019-02-08T02:21:13.618Z,1.90
2019-02-08T02:23:43.027Z,1.87
2019-02-08T02:26:12.336Z,1.87
2019-02-08T02:28:41.504Z,1.57
2019-02-08T02:31:10.574Z,1.53
2019-02-08T02:33:39.723Z,1.73
2019-02-08T02:36:09.031Z,1.63
2019-02-08T02:38:38.068Z,2.00
2019-02-08T02:41:08.300Z,1.87
2019-02-08T02:43:37.397Z,1.90
2019-02-08T02:46:07.729Z,1.50
2019-02-08T02:48:38.514Z,1.50
2019-02-08T02:51:07.993Z,1.67
2019-02-08T02:53:38.796Z,1.40
2019-02-08T02:56:07.878Z,1.90
2019-02-08T02:58:37.295Z,1.33
2019-02-08T03:01:06.505Z,1.95
2019-02-08T03:03:35.656Z,1.80
2019-02-08T03:06:05.336Z,1.60
2019-02-08T03:08:34.516Z,1.50
2019-02-08T03:11:03.713Z,1.40
2019-02-08T03:13:32.860Z,1.50
2019-02-08T03:16:02.269Z,1.80
2019-02-08T03:18:31.879Z,2.00
2019-02-08T03:21:01.044Z,1.67
2019-02-08T03:23:30.346Z,1.63
2019-02-08T03:25:59.669Z,1.70
2019-02-08T03:28:29.055Z,1.80
2019-02-08T03:30:59.049Z,1.87
2019-02-08T03:33:28.690Z,1.93
2019-02-08T03:35:58.100Z,1.87
2019-02-08T03:38:27.821Z,1.95
2019-02-08T03:40:57.951Z,2.33
2019-02-08T03:43:28.137Z,1.90
2019-02-08T03:45:57.764Z,2.10
2019-02-08T03:48:28.057Z,1.57
2019-02-08T03:50:58.111Z,1.83
2019-02-08T03:53:28.224Z,2.10
2019-02-08T03:55:59.044Z,1.80
2019-02-08T03:58:28.597Z,2.10
2019-02-08T04:01:01.446Z,2.00
2019-02-08T04:03:30.888Z,2.10
2019-02-08T04:06:00.452Z,2.00
2019-02-08T04:08:29.552Z,1.80
2019-02-08T04:10:59.176Z,1.90
2019-02-08T04:13:29.257Z,1.90
2019-02-08T04:15:59.060Z,2.00
2019-02-08T04:18:29.608Z,2.03
2019-02-08T04:20:59.792Z,1.97
2019-02-08T04:23:29.312Z,2.20
2019-02-08T04:25:59.906Z,2.43
2019-02-08T04:28:29.444Z,2.60
2019-02-08T04:30:59.745Z,2.42
2019-02-08T04:33:30.411Z,2.30
2019-02-08T04:36:00.384Z,2.77
2019-02-08T04:38:29.917Z,2.70
2019-02-08T04:40:59.866Z,2.97
2019-02-08T04:43:28.957Z,3.13
2019-02-08T04:45:58.172Z,2.77
2019-02-08T04:48:27.352Z,3.00
2019-02-08T04:50:56.540Z,3.20
2019-02-08T04:53:25.664Z,3.72
2019-02-08T04:55:54.772Z,3.40
2019-02-08T04:58:24.673Z,3.37
2019-02-08T05:00:53.809Z,3.63
2019-02-08T05:03:22.937Z,3.50
2019-02-08T05:05:52.247Z,3.77
2019-02-08T05:08:21.844Z,4.33
2019-02-08T05:10:51.792Z,3.60
2019-02-08T05:13:20.880Z,4.03
2019-02-08T05:15:50.024Z,4.95
2019-02-08T05:18:20.082Z,4.23
2019-02-08T05:20:49.233Z,3.43
2019-02-08T05:23:18.448Z,3.87
2019-02-08T05:25:47.804Z,3.50
2019-02-08T05:28:17.200Z,4.00
2019-02-08T05:30:46.436Z,5.10
2019-02-08T05:33:15.748Z,4.53
2019-02-08T05:35:45.043Z,3.95
2019-02-08T05:38:14.896Z,4.40
2019-02-08T05:40:44.064Z,4.75
2019-02-08T05:43:14.551Z,5.93
2019-02-08T05:45:43.750Z,4.40
2019-02-08T05:48:12.803Z,5.10
2019-02-08T05:50:42.336Z,5.60
2019-02-08T05:53:11.498Z,4.67
2019-02-08T05:55:40.615Z,5.30
2019-02-08T05:58:09.687Z,5.10
2019-02-08T06:00:52.899Z,4.80
2019-02-08T06:03:21.991Z,5.53
2019-02-08T06:05:51.660Z,4.43
2019-02-08T06:08:21.099Z,5.00
2019-02-08T06:10:51.244Z,4.30
2019-02-08T06:13:20.600Z,4.30
2019-02-08T06:15:50.853Z,4.27
2019-02-08T06:18:20.972Z,3.93
2019-02-08T06:20:50.284Z,4.33
2019-02-08T06:23:19.436Z,3.65
2019-02-08T06:25:48.517Z,3.93
2019-02-08T06:28:17.708Z,3.67
2019-02-08T06:30:47.020Z,3.47
2019-02-08T06:33:16.144Z,3.73
2019-02-08T06:35:45.312Z,3.62
2019-02-08T06:38:14.469Z,4.70
2019-02-08T06:40:45.032Z,3.83
2019-02-08T06:43:14.125Z,3.50
2019-02-08T06:45:43.591Z,4.00
2019-02-08T06:48:13.843Z,3.90
2019-02-08T06:50:43.132Z,4.10
2019-02-08T06:53:13.012Z,3.70
2019-02-08T06:55:42.135Z,2.83
2019-02-08T06:58:47.900Z,2.77
2019-02-08T07:01:35.272Z,3.00
2019-02-08T07:04:27.491Z,2.70
2019-02-08T07:07:15.716Z,3.43
2019-02-08T07:10:07.024Z,2.83
2019-02-08T07:13:01.093Z,2.63
2019-02-08T07:15:43.136Z,2.67
2019-02-08T07:18:34.781Z,2.60
2019-02-08T07:21:13.308Z,2.50
2019-02-08T07:24:04.364Z,2.43
2019-02-08T07:26:55.632Z,2.67
2019-02-08T07:29:40.357Z,2.87
2019-02-08T07:32:33.368Z,2.33
2019-02-08T07:35:13.910Z,2.33
2019-02-08T07:38:02.460Z,2.53
2019-02-08T07:40:42.341Z,2.10
2019-02-08T07:43:28.755Z,2.20
2019-02-08T07:46:26.672Z,2.20
2019-02-08T07:49:04.555Z,2.20
2019-02-08T07:51:45.996Z,2.83
2019-02-08T07:54:37.256Z,2.97
2019-02-08T07:57:24.180Z,2.70
2019-02-08T08:00:19.800Z,2.80
2019-02-08T08:03:07.124Z,2.80
2019-02-08T08:06:00.342Z,2.50
2019-02-08T08:08:47.304Z,2.77
2019-02-08T08:11:29.437Z,3.27
2019-02-08T08:14:23.142Z,2.00
2019-02-08T08:17:10.293Z,2.23
2019-02-08T08:20:03.668Z,2.17
2019-02-08T08:22:57.757Z,2.07
2019-02-08T08:25:47.844Z,2.47
2019-02-08T08:28:46.975Z,2.33
2019-02-08T08:31:22.472Z,1.90
2019-02-08T08:34:03.994Z,2.30
2019-02-08T08:37:10.276Z,2.47
2019-02-08T08:40:27.852Z,2.03
2019-02-08T08:43:37.956Z,2.10
2019-02-08T08:46:27.285Z,2.20
2019-02-08T08:49:39.428Z,2.17
2019-02-08T08:52:25.021Z,1.93
2019-02-08T08:55:32.297Z,2.13
2019-02-08T08:58:56.496Z,2.20
2019-02-08T09:02:09.384Z,2.50
2019-02-08T09:05:02.347Z,1.73
2019-02-08T09:08:25.148Z,1.70
2019-02-08T09:11:37.125Z,1.50
2019-02-08T09:14:46.524Z,2.00
2019-02-08T09:18:18.343Z,1.90
2019-02-08T09:21:34.567Z,1.80
2019-02-08T09:24:33.400Z,1.67
2019-02-08T09:27:36.299Z,1.60
2019-02-08T09:31:04.604Z,1.30
2019-02-08T09:33:56.999Z,1.50
2019-02-08T09:37:04.575Z,1.60
2019-02-08T09:40:02.027Z,1.80
2019-02-08T09:43:07.276Z,1.60
2019-02-08T09:46:00.690Z,1.30
2019-02-08T09:48:59.690Z,1.43
2019-02-08T09:52:11.710Z,1.40
2019-02-08T09:55:13.453Z,1.60
2019-02-08T09:58:19.236Z,1.40
2019-02-08T10:01:25.522Z,1.83
2019-02-08T10:04:16.940Z,1.50
2019-02-08T10:07:14.378Z,1.73
2019-02-08T10:10:29.768Z,1.70
2019-02-08T10:13:38.598Z,1.60
2019-02-08T10:16:35.901Z,1.70
2019-02-08T10:19:33.271Z,1.67
2019-02-08T10:22:46.600Z,1.60
2019-02-08T10:25:51.252Z,1.40
2019-02-08T10:29:09.394Z,1.50
2019-02-08T10:32:16.998Z,1.60
2019-02-08T10:35:35.183Z,1.57
2019-02-08T10:38:47.259Z,2.00
2019-02-08T10:42:07.044Z,2.23
2019-02-08T10:45:14.967Z,1.60
2019-02-08T10:48:21.260Z,1.57
2019-02-08T10:51:19.980Z,1.20
2019-02-08T10:54:39.064Z,1.53
2019-02-08T10:57:44.429Z,1.10
2019-02-08T11:00:52.829Z,1.17
2019-02-08T11:03:59.436Z,1.07
2019-02-08T11:06:57.492Z,0.93
2019-02-08T11:10:07.803Z,1.00
2019-02-08T11:13:13.894Z,1.00
2019-02-08T11:16:33.888Z,1.00
2019-02-08T11:19:15.943Z,1.10
2019-02-08T11:21:46.030Z,1.23
2019-02-08T11:24:16.448Z,1.83
2019-02-08T11:26:46.251Z,1.30
2019-02-08T11:29:15.431Z,1.30
2019-02-08T11:31:44.547Z,1.00
2019-02-08T11:34:14.173Z,0.80
2019-02-08T11:36:43.444Z,1.10
2019-02-08T11:39:18.036Z,1.40
2019-02-08T11:41:48.164Z,1.00
2019-02-08T11:44:18.743Z,1.00
2019-02-08T11:46:49.152Z,1.33
2019-02-08T11:49:18.553Z,1.03
2019-02-08T11:51:47.733Z,0.93
2019-02-08T11:54:17.608Z,1.10
2019-02-08T11:56:47.872Z,1.00
2019-02-08T11:59:16.948Z,0.80
2019-02-08T12:01:48.120Z,1.37
2019-02-08T12:04:18.148Z,1.00
2019-02-08T12:06:47.331Z,1.03
2019-02-08T12:09:18.292Z,0.97
2019-02-08T12:11:47.607Z,1.00
2019-02-08T12:14:16.729Z,0.90
2019-02-08T12:16:45.872Z,0.97
2019-02-08T12:19:14.968Z,1.10
2019-02-08T12:21:44.044Z,0.97
2019-02-08T12:24:13.132Z,0.90
2019-02-08T12:26:42.420Z,0.90
2019-02-08T12:29:12.278Z,1.60
2019-02-08T12:31:41.636Z,1.02
2019-02-08T12:34:10.903Z,0.97
2019-02-08T12:36:40.063Z,0.80
2019-02-08T12:39:11.163Z,0.87
2019-02-08T12:41:41.164Z,1.63
2019-02-08T12:44:14.143Z,1.00
2019-02-08T12:46:43.360Z,1.10
2019-02-08T12:49:12.870Z,1.00
2019-02-08T12:51:41.959Z,1.70
2019-02-08T12:54:11.783Z,1.20
2019-02-08T12:56:45.711Z,0.93
2019-02-08T12:59:13.016Z,1.07
2019-02-08T13:01:42.488Z,1.20
2019-02-08T13:04:14.808Z,0.83
2019-02-08T13:06:43.963Z,1.10
2019-02-08T13:09:13.502Z,1.47
2019-02-08T13:11:43.200Z,1.40
2019-02-08T13:14:12.920Z,1.17
2019-02-08T13:16:42.336Z,1.10
2019-02-08T13:19:11.792Z,1.50
2019-02-08T13:21:41.303Z,1.13
2019-02-08T13:24:10.821Z,1.10
2019-02-08T13:26:39.908Z,1.37
2019-02-08T13:29:08.968Z,1.40
2019-02-08T13:31:38.097Z,1.30
2019-02-08T13:34:07.360Z,1.30
2019-02-08T13:36:36.469Z,1.50
2019-02-08T13:39:08.627Z,1.50
2019-02-08T13:41:38.235Z,1.70
2019-02-08T13:44:07.692Z,1.90
2019-02-08T13:46:38.042Z,1.63
2019-02-08T13:49:08.748Z,1.60
2019-02-08T13:51:38.007Z,1.87
2019-02-08T13:54:07.204Z,1.40
2019-02-08T13:56:36.656Z,1.60
2019-02-08T13:59:06.023Z,1.80
2019-02-08T14:01:35.127Z,2.00
2019-02-08T14:04:04.862Z,1.70
2019-02-08T14:06:33.957Z,2.00
2019-02-08T14:09:04.398Z,2.07
2019-02-08T14:11:33.455Z,1.50
2019-02-08T14:14:02.753Z,1.83
2019-02-08T14:16:31.888Z,1.80
2019-02-08T14:19:01.780Z,1.57
2019-02-08T14:21:30.888Z,2.40
2019-02-08T14:24:00.951Z,1.50
2019-02-08T14:26:30.558Z,2.00
2019-02-08T14:29:00.556Z,1.90
2019-02-08T14:31:31.072Z,1.90
2019-02-08T14:34:01.372Z,2.22
2019-02-08T14:36:31.061Z,1.73
2019-02-08T14:39:01.199Z,2.10
2019-02-08T14:41:33.344Z,2.13
2019-02-08T14:44:03.753Z,1.80
2019-02-08T14:46:33.664Z,1.90
2019-02-08T14:49:02.808Z,1.67
2019-02-08T14:51:32.091Z,1.80
2019-02-08T14:54:01.897Z,1.80
2019-02-08T14:56:31.965Z,1.80
2019-02-08T14:59:02.677Z,2.30
2019-02-08T15:01:32.285Z,1.90
2019-02-08T15:04:02.415Z,1.80
2019-02-08T15:06:32.324Z,1.47
2019-02-08T15:09:02.402Z,2.00
2019-02-08T15:11:32.192Z,2.10
2019-02-08T15:14:02.355Z,2.42
2019-02-08T15:16:32.880Z,2.27
2019-02-08T15:19:03.068Z,2.58
2019-02-08T15:21:32.971Z,1.85
2019-02-08T15:24:03.008Z,2.27
2019-02-08T15:26:32.925Z,1.97
2019-02-08T15:29:02.946Z,2.20
2019-02-08T15:31:33.188Z,2.20
2019-02-08T15:34:03.240Z,1.82
2019-02-08T15:36:33.289Z,1.90
2019-02-08T15:39:02.444Z,2.20
2019-02-08T15:41:31.656Z,1.73
2019-02-08T15:44:00.816Z,1.83
2019-02-08T15:46:29.900Z,2.20
2019-02-08T15:49:00.049Z,2.10
2019-02-08T15:51:29.901Z,2.13
2019-02-08T15:53:59.052Z,1.87
2019-02-08T15:56:28.488Z,2.40
2019-02-08T15:58:57.617Z,2.20
2019-02-08T16:01:26.960Z,2.33
2019-02-08T16:03:56.100Z,2.20
2019-02-08T16:06:26.449Z,2.30
2019-02-08T16:08:55.920Z,2.20
2019-02-08T16:11:25.259Z,1.97
2019-02-08T16:13:57.973Z,2.60
2019-02-08T16:16:27.045Z,2.13
2019-02-08T16:18:56.204Z,2.07
2019-02-08T16:21:25.797Z,2.13
2019-02-08T16:23:54.943Z,2.80
2019-02-08T16:26:24.011Z,2.30
2019-02-08T16:28:56.662Z,2.33
2019-02-08T16:31:25.876Z,2.17
2019-02-08T16:33:55.076Z,2.23
2019-02-08T16:36:24.210Z,2.07
2019-02-08T16:38:53.288Z,2.50
2019-02-08T16:41:22.399Z,2.00
2019-02-08T16:43:51.892Z,2.03
2019-02-08T16:46:21.043Z,2.23
2019-02-08T16:48:50.164Z,2.20
2019-02-08T16:51:19.410Z,2.30
2019-02-08T16:53:53.344Z,1.87
2019-02-08T16:56:19.443Z,2.20
2019-02-08T16:58:48.536Z,2.20
2019-02-08T17:01:17.592Z,2.27
2019-02-08T17:03:46.781Z,2.57
2019-02-08T17:06:16.192Z,1.93
2019-02-08T17:08:45.340Z,2.33
2019-02-08T17:11:14.717Z,2.17
2019-02-08T17:13:43.768Z,2.43
2019-02-08T17:16:15.797Z,2.20
2019-02-08T17:18:44.823Z,2.20
2019-02-08T17:21:14.415Z,2.50
2019-02-08T17:23:43.552Z,2.20
2019-02-08T17:26:12.985Z,2.20
2019-02-08T17:28:42.095Z,3.03
2019-02-08T17:31:11.219Z,1.97
2019-02-08T17:33:40.609Z,2.10
2019-02-08T17:36:09.904Z,2.37
2019-02-08T17:38:39.095Z,2.20
2019-02-08T17:41:09.618Z,2.20
2019-02-08T17:43:38.982Z,6.08
2019-02-08T17:46:08.200Z,2.50
2019-02-08T17:48:37.343Z,2.90
2019-02-08T17:51:06.484Z,2.20
2019-02-08T17:53:35.912Z,2.07
2019-02-08T17:56:05.208Z,2.90
2019-02-08T17:58:35.180Z,2.87
2019-02-08T18:01:04.973Z,3.15
2019-02-08T18:03:34.931Z,2.60
2019-02-08T18:06:04.351Z,2.27
2019-02-08T18:08:34.556Z,2.43
2019-02-08T18:11:04.056Z,2.20
2019-02-08T18:13:33.245Z,2.50
2019-02-08T18:16:02.414Z,2.40
2019-02-08T18:18:32.151Z,2.47
2019-02-08T18:21:03.884Z,2.67
2019-02-08T18:23:34.360Z,2.20
2019-02-08T18:26:04.107Z,2.37
2019-02-08T18:28:33.304Z,2.20
2019-02-08T18:31:02.710Z,2.47
2019-02-08T18:33:32.160Z,2.17
2019-02-08T18:36:01.202Z,1.97
2019-02-08T18:38:30.400Z,2.02
2019-02-08T18:40:59.853Z,2.20
2019-02-08T18:43:28.936Z,2.00
2019-02-08T18:45:58.548Z,2.30
2019-02-08T18:48:27.719Z,1.80
2019-02-08T18:50:56.885Z,1.77
2019-02-08T18:53:25.942Z,2.30
2019-02-08T18:55:55.103Z,1.80
2019-02-08T18:58:24.247Z,2.10
2019-02-08T19:00:53.950Z,2.12
2019-02-08T19:03:23.577Z,1.73
2019-02-08T19:05:54.481Z,2.23
2019-02-08T19:08:23.549Z,1.60
2019-02-08T19:10:52.702Z,1.75
2019-02-08T19:13:21.892Z,1.37
2019-02-08T19:15:50.971Z,2.00
2019-02-08T19:18:20.096Z,1.80
2019-02-08T19:20:49.136Z,1.92
2019-02-08T19:23:18.605Z,1.77
2019-02-08T19:25:49.136Z,1.90
2019-02-08T19:28:26.145Z,2.07
2019-02-08T19:30:50.588Z,1.87
2019-02-08T19:33:19.769Z,1.90
2019-02-08T19:35:48.973Z,2.20
2019-02-08T19:38:18.265Z,1.82
2019-02-08T19:40:47.337Z,2.20
2019-02-08T19:43:17.734Z,2.17
2019-02-08T19:45:47.375Z,1.75
2019-02-08T19:48:16.916Z,1.80
2019-02-08T19:50:46.832Z,2.03
2019-02-08T19:53:16.180Z,1.97
2019-02-08T19:55:45.738Z,2.87
2019-02-08T19:58:15.022Z,2.20
2019-02-08T20:00:45.262Z,1.90
2019-02-08T20:03:14.508Z,1.83
2019-02-08T20:05:43.684Z,2.27
2019-02-08T20:08:13.896Z,2.00
2019-02-08T20:10:44.869Z,1.72
2019-02-08T20:13:14.144Z,2.00
2019-02-08T20:15:43.358Z,1.90
2019-02-08T20:18:13.493Z,2.00
2019-02-08T20:20:42.900Z,1.83
2019-02-08T20:23:12.012Z,1.67
2019-02-08T20:25:41.128Z,1.90
2019-02-08T20:28:10.484Z,1.50
2019-02-08T20:30:39.833Z,2.02
2019-02-08T20:33:09.064Z,1.98
2019-02-08T20:35:38.228Z,1.80
2019-02-08T20:38:10.020Z,1.90
2019-02-08T20:40:45.211Z,1.63
2019-02-08T20:43:14.582Z,2.30
2019-02-08T20:45:43.779Z,1.67
2019-02-08T20:48:23.672Z,1.80
2019-02-08T20:50:53.055Z,1.60
2019-02-08T20:53:22.712Z,2.20
2019-02-08T20:55:53.751Z,2.40
2019-02-08T20:58:23.044Z,1.97
2019-02-08T21:00:53.404Z,1.90
2019-02-08T21:03:25.063Z,2.07
2019-02-08T21:05:54.878Z,1.90
2019-02-08T21:08:24.201Z,1.50
2019-02-08T21:10:53.249Z,1.70
2019-02-08T21:13:22.567Z,1.90
2019-02-08T21:15:52.090Z,2.37
2019-02-08T21:18:21.474Z,2.00
2019-02-08T21:20:50.679Z,1.87
2019-02-08T21:23:19.860Z,1.70
2019-02-08T21:25:51.694Z,2.20
2019-02-08T21:28:20.629Z,2.33
2019-02-08T21:30:49.731Z,2.83
2019-02-08T21:33:19.627Z,1.83
2019-02-08T21:35:49.688Z,2.10
2019-02-08T21:38:18.959Z,1.90
2019-02-08T21:40:48.380Z,1.60
2019-02-08T21:43:17.471Z,1.83
2019-02-08T21:45:46.877Z,1.80
2019-02-08T21:48:16.065Z,2.12
2019-02-08T21:50:45.286Z,1.90
2019-02-08T21:53:14.531Z,1.90
2019-02-08T21:55:44.016Z,1.60
2019-02-08T21:58:13.216Z,1.80
2019-02-08T22:00:43.172Z,2.00
2019-02-08T22:03:13.766Z,1.70
2019-02-08T22:06:01.336Z,1.60
2019-02-08T22:08:31.265Z,1.50
2019-02-08T22:11:00.744Z,1.63
2019-02-08T22:13:30.121Z,2.33
2019-02-08T22:15:59.420Z,1.90
2019-02-08T22:18:28.632Z,1.73
2019-02-08T22:20:57.842Z,1.67
2019-02-08T22:23:27.115Z,1.87
2019-02-08T22:25:57.933Z,2.07
2019-02-08T22:28:27.142Z,1.67
2019-02-08T22:30:56.524Z,2.70
2019-02-08T22:33:27.996Z,1.50
2019-02-08T22:35:57.476Z,2.10
2019-02-08T22:38:26.761Z,1.73
2019-02-08T22:40:56.572Z,1.90
2019-02-08T22:43:25.691Z,1.70
2019-02-08T22:45:55.376Z,1.90
2019-02-08T22:48:24.660Z,1.90
2019-02-08T22:50:54.012Z,2.20
2019-02-08T22:53:23.192Z,2.20
2019-02-08T22:55:53.173Z,2.03
2019-02-08T22:58:22.364Z,2.27
2019-02-08T23:01:28.675Z,2.73
2019-02-08T23:04:01.814Z,1.97
2019-02-08T23:06:31.447Z,2.00
2019-02-08T23:09:00.814Z,1.90
2019-02-08T23:11:30.148Z,2.03
2019-02-08T23:13:59.635Z,2.00
2019-02-08T23:16:29.047Z,1.70
2019-02-08T23:18:58.191Z,1.83
2019-02-08T23:21:27.431Z,1.98
2019-02-08T23:23:56.468Z,1.80
2019-02-08T23:26:25.616Z,2.53
2019-02-08T23:28:54.792Z,1.93
2019-02-08T23:31:24.043Z,2.20
2019-02-08T23:33:53.633Z,1.90
2019-02-08T23:36:22.808Z,2.13
2019-02-08T23:38:52.324Z,2.27
2019-02-08T23:41:23.456Z,2.13
2019-02-08T23:43:52.492Z,1.87
2019-02-08T23:46:21.613Z,1.70
2019-02-08T23:48:50.700Z,2.23
2019-02-08T23:51:19.816Z,1.77
2019-02-08T23:53:49.841Z,2.00
2019-02-08T23:56:19.229Z,2.03
2019-02-08T23:58:48.391Z,2.10
